Aviation Digital Data Service (ADDS)

Output produced by TAFs form (2359 UTC 18 February 2018)
found at http://www.aviationweather.gov/adds/tafs/
 
METAR text: RJFG 182330Z 05004KT 350V100 9999 FEW025 SCT030 BKN050 13/10 Q1019
Conditions at: RJFG (TANEGASHIMA AIRP, JP) observed 2330 UTC 18 February 2018
Temperature: 13.0°C (55°F)
Dewpoint: 10.0°C (50°F) [RH = 82%]
Pressure (altimeter): 30.09 inches Hg (1019.0 mb)
Winds: from the NE (50 degrees) at 5 MPH (4 knots; 2.1 m/s)
Visibility: 6 or more miles (10+ km)
Ceiling: 5000 feet AGL
Clouds: few clouds at 2500 feet AGL
scattered clouds at 3000 feet AGL
broken clouds at 5000 feet AGL
Weather: no significant weather observed at this time